sensor_id;sensor_type;location;lat;lon;timestamp;pressure;altitude;pressure_sealevel;temperature;humidity
33153;BME280;19509;43.862;26.176;2022-08-19T00:00:17;100330.34;;;22.45;65.81
33153;BME280;19509;43.862;26.176;2022-08-19T00:02:44;100330.78;;;22.33;66.56
33153;BME280;19509;43.862;26.176;2022-08-19T00:05:12;100339.97;;;22.24;66.72
33153;BME280;19509;43.862;26.176;2022-08-19T00:07:39;100338.56;;;22.02;67.23
33153;BME280;19509;43.862;26.176;2022-08-19T00:10:06;100339.00;;;22.09;67.02
33153;BME280;19509;43.862;26.176;2022-08-19T00:12:32;100337.91;;;21.86;68.00
33153;BME280;19509;43.862;26.176;2022-08-19T00:14:58;100343.81;;;21.75;68.43
33153;BME280;19509;43.862;26.176;2022-08-19T00:17:24;100340.38;;;21.88;68.17
33153;BME280;19509;43.862;26.176;2022-08-19T00:19:49;100345.19;;;21.96;68.19
33153;BME280;19509;43.862;26.176;2022-08-19T00:22:15;100340.03;;;21.94;68.14
33153;BME280;19509;43.862;26.176;2022-08-19T00:24:42;100344.09;;;21.97;68.10
33153;BME280;19509;43.862;26.176;2022-08-19T00:27:08;100340.84;;;21.95;68.03
33153;BME280;19509;43.862;26.176;2022-08-19T00:29:34;100337.53;;;21.98;67.95
33153;BME280;19509;43.862;26.176;2022-08-19T00:31:59;100334.00;;;21.92;68.25
33153;BME280;19509;43.862;26.176;2022-08-19T00:34:26;100336.53;;;21.89;68.16
33153;BME280;19509;43.862;26.176;2022-08-19T00:36:53;100330.94;;;21.75;68.54
33153;BME280;19509;43.862;26.176;2022-08-19T00:39:19;100328.81;;;21.67;68.95
33153;BME280;19509;43.862;26.176;2022-08-19T00:41:46;100329.41;;;21.64;69.06
33153;BME280;19509;43.862;26.176;2022-08-19T00:44:26;100333.31;;;21.58;69.19
33153;BME280;19509;43.862;26.176;2022-08-19T00:46:54;100326.78;;;21.54;69.38
33153;BME280;19509;43.862;26.176;2022-08-19T00:49:23;100328.28;;;21.41;69.56
33153;BME280;19509;43.862;26.176;2022-08-19T00:51:57;100328.72;;;21.19;70.49
33153;BME280;19509;43.862;26.176;2022-08-19T00:54:25;100326.31;;;21.12;70.55
33153;BME280;19509;43.862;26.176;2022-08-19T00:56:51;100334.84;;;21.06;70.97
33153;BME280;19509;43.862;26.176;2022-08-19T00:59:17;100331.25;;;21.10;70.74
33153;BME280;19509;43.862;26.176;2022-08-19T01:01:45;100332.66;;;21.08;71.05
33153;BME280;19509;43.862;26.176;2022-08-19T01:04:11;100329.41;;;21.00;70.99
33153;BME280;19509;43.862;26.176;2022-08-19T01:06:38;100334.47;;;20.83;71.60
33153;BME280;19509;43.862;26.176;2022-08-19T01:09:05;100335.25;;;20.89;71.26
33153;BME280;19509;43.862;26.176;2022-08-19T01:11:34;100329.75;;;20.94;71.23
33153;BME280;19509;43.862;26.176;2022-08-19T01:14:00;100330.22;;;21.01;71.22
33153;BME280;19509;43.862;26.176;2022-08-19T01:16:27;100334.34;;;20.98;71.55
33153;BME280;19509;43.862;26.176;2022-08-19T01:18:54;100333.03;;;20.96;71.61
33153;BME280;19509;43.862;26.176;2022-08-19T01:21:32;100333.50;;;21.03;71.13
33153;BME280;19509;43.862;26.176;2022-08-19T01:24:00;100335.25;;;20.89;71.60
33153;BME280;19509;43.862;26.176;2022-08-19T01:26:26;100333.84;;;20.96;71.45
33153;BME280;19509;43.862;26.176;2022-08-19T01:28:55;100335.50;;;20.92;71.50
33153;BME280;19509;43.862;26.176;2022-08-19T01:31:26;100330.56;;;20.94;71.40
33153;BME280;19509;43.862;26.176;2022-08-19T01:33:56;100333.09;;;20.86;71.72
33153;BME280;19509;43.862;26.176;2022-08-19T01:36:27;100324.69;;;20.77;72.00
33153;BME280;19509;43.862;26.176;2022-08-19T01:38:54;100329.09;;;20.68;72.21
33153;BME280;19509;43.862;26.176;2022-08-19T01:41:20;100334.88;;;20.66;72.10
33153;BME280;19509;43.862;26.176;2022-08-19T01:43:49;100325.38;;;20.59;72.27
33153;BME280;19509;43.862;26.176;2022-08-19T01:46:15;100332.72;;;20.58;72.66
33153;BME280;19509;43.862;26.176;2022-08-19T01:48:42;100333.25;;;20.60;72.42
33153;BME280;19509;43.862;26.176;2022-08-19T01:51:10;100333.25;;;20.60;72.45
33153;BME280;19509;43.862;26.176;2022-08-19T01:53:36;100337.38;;;20.58;72.67
33153;BME280;19509;43.862;26.176;2022-08-19T01:56:03;100336.03;;;20.50;72.67
33153;BME280;19509;43.862;26.176;2022-08-19T01:58:32;100334.16;;;20.45;72.80
33153;BME280;19509;43.862;26.176;2022-08-19T02:01:01;100333.31;;;20.55;72.49
33153;BME280;19509;43.862;26.176;2022-08-19T02:03:27;100340.66;;;20.54;72.67
33153;BME280;19509;43.862;26.176;2022-08-19T02:05:59;100347.28;;;20.43;72.86
33153;BME280;19509;43.862;26.176;2022-08-19T02:08:26;100347.28;;;20.43;72.73
33153;BME280;19509;43.862;26.176;2022-08-19T02:10:52;100339.63;;;20.40;72.44
33153;BME280;19509;43.862;26.176;2022-08-19T02:13:18;100347.31;;;20.33;72.59
33153;BME280;19509;43.862;26.176;2022-08-19T02:15:45;100347.03;;;20.40;72.43
33153;BME280;19509;43.862;26.176;2022-08-19T02:18:10;100350.84;;;20.39;72.19
33153;BME280;19509;43.862;26.176;2022-08-19T02:20:37;100357.66;;;20.46;72.00
33153;BME280;19509;43.862;26.176;2022-08-19T02:23:04;100363.13;;;20.41;72.16
33153;BME280;19509;43.862;26.176;2022-08-19T02:25:29;100367.00;;;20.30;72.72
33153;BME280;19509;43.862;26.176;2022-08-19T02:27:55;100363.47;;;20.24;72.58
33153;BME280;19509;43.862;26.176;2022-08-19T02:30:21;100367.59;;;20.22;72.79
33153;BME280;19509;43.862;26.176;2022-08-19T02:32:47;100374.78;;;20.02;73.41
33153;BME280;19509;43.862;26.176;2022-08-19T02:35:13;100370.16;;;19.98;73.56
33153;BME280;19509;43.862;26.176;2022-08-19T02:37:40;100380.78;;;20.04;74.24
33153;BME280;19509;43.862;26.176;2022-08-19T02:40:25;100381.00;;;20.18;73.75
33153;BME280;19509;43.862;26.176;2022-08-19T02:42:51;100380.72;;;20.20;73.76
33153;BME280;19509;43.862;26.176;2022-08-19T02:45:16;100385.91;;;20.21;73.68
33153;BME280;19509;43.862;26.176;2022-08-19T02:47:42;100386.75;;;20.22;73.75
33153;BME280;19509;43.862;26.176;2022-08-19T02:50:08;100390.53;;;20.26;73.54
33153;BME280;19509;43.862;26.176;2022-08-19T02:52:34;100389.94;;;20.34;73.80
33153;BME280;19509;43.862;26.176;2022-08-19T02:55:00;100382.88;;;20.28;73.41
33153;BME280;19509;43.862;26.176;2022-08-19T02:57:26;100396.84;;;20.21;73.46
33153;BME280;19509;43.862;26.176;2022-08-19T02:59:52;100397.88;;;20.30;72.94
33153;BME280;19509;43.862;26.176;2022-08-19T03:02:18;100398.19;;;20.29;72.92
33153;BME280;19509;43.862;26.176;2022-08-19T03:04:44;100403.38;;;20.25;73.07
33153;BME280;19509;43.862;26.176;2022-08-19T03:07:13;100393.88;;;20.18;73.11
33153;BME280;19509;43.862;26.176;2022-08-19T03:09:41;100399.09;;;19.99;73.78
33153;BME280;19509;43.862;26.176;2022-08-19T03:12:08;100396.38;;;19.83;74.30
33153;BME280;19509;43.862;26.176;2022-08-19T03:14:34;100393.41;;;19.54;75.31
33153;BME280;19509;43.862;26.176;2022-08-19T03:17:00;100390.41;;;19.46;75.40
33153;BME280;19509;43.862;26.176;2022-08-19T03:19:26;100389.06;;;19.43;75.42
33153;BME280;19509;43.862;26.176;2022-08-19T03:21:53;100391.22;;;19.56;75.38
33153;BME280;19509;43.862;26.176;2022-08-19T03:24:19;100389.31;;;19.72;74.73
33153;BME280;19509;43.862;26.176;2022-08-19T03:26:51;100391.22;;;19.82;74.81
33153;BME280;19509;43.862;26.176;2022-08-19T03:29:18;100393.41;;;19.85;74.80
33153;BME280;19509;43.862;26.176;2022-08-19T03:31:44;100389.53;;;19.96;74.66
33153;BME280;19509;43.862;26.176;2022-08-19T03:34:11;100396.06;;;20.05;74.22
33153;BME280;19509;43.862;26.176;2022-08-19T03:36:39;100388.16;;;19.94;74.65
33153;BME280;19509;43.862;26.176;2022-08-19T03:39:05;100395.00;;;19.96;74.35
33153;BME280;19509;43.862;26.176;2022-08-19T03:41:32;100394.75;;;19.98;74.46
33153;BME280;19509;43.862;26.176;2022-08-19T03:44:02;100403.47;;;20.05;74.54
33153;BME280;19509;43.862;26.176;2022-08-19T03:46:30;100404.28;;;20.05;74.09
33153;BME280;19509;43.862;26.176;2022-08-19T03:48:58;100409.44;;;20.12;73.49
33153;BME280;19509;43.862;26.176;2022-08-19T03:51:27;100408.81;;;20.30;72.72
33153;BME280;19509;43.862;26.176;2022-08-19T03:53:54;100409.66;;;20.26;73.28
33153;BME280;19509;43.862;26.176;2022-08-19T03:56:21;100413.47;;;20.35;72.79
33153;BME280;19509;43.862;26.176;2022-08-19T03:58:47;100412.00;;;20.63;71.60
33153;BME280;19509;43.862;26.176;2022-08-19T04:01:18;100412.47;;;20.75;71.16
33153;BME280;19509;43.862;26.176;2022-08-19T04:03:45;100420.38;;;20.77;70.90
33153;BME280;19509;43.862;26.176;2022-08-19T04:06:15;100420.25;;;21.02;70.38
33153;BME280;19509;43.862;26.176;2022-08-19T04:08:42;100423.22;;;21.06;70.67
33153;BME280;19509;43.862;26.176;2022-08-19T04:11:10;100416.97;;;21.00;70.71
33153;BME280;19509;43.862;26.176;2022-08-19T04:13:36;100427.41;;;20.93;71.24
33153;BME280;19509;43.862;26.176;2022-08-19T04:16:04;100415.66;;;20.88;71.32
33153;BME280;19509;43.862;26.176;2022-08-19T04:18:30;100415.66;;;20.93;71.01
33153;BME280;19509;43.862;26.176;2022-08-19T04:20:56;100420.81;;;20.94;70.78
33153;BME280;19509;43.862;26.176;2022-08-19T04:23:22;100429.34;;;20.93;71.02
33153;BME280;19509;43.862;26.176;2022-08-19T04:25:48;100429.03;;;20.99;71.38
33153;BME280;19509;43.862;26.176;2022-08-19T04:28:14;100440.91;;;20.79;71.95
33153;BME280;19509;43.862;26.176;2022-08-19T04:30:45;100435.06;;;20.91;71.70
33153;BME280;19509;43.862;26.176;2022-08-19T04:33:14;100449.75;;;21.06;71.52
33153;BME280;19509;43.862;26.176;2022-08-19T04:35:47;100443.06;;;21.27;70.91
33153;BME280;19509;43.862;26.176;2022-08-19T04:38:14;100450.09;;;21.43;70.64
33153;BME280;19509;43.862;26.176;2022-08-19T04:40:45;100440.19;;;21.47;70.11
33153;BME280;19509;43.862;26.176;2022-08-19T04:43:30;100427.69;;;21.65;69.94
33153;BME280;19509;43.862;26.176;2022-08-19T04:45:55;100427.56;;;21.81;69.76
33153;BME280;19509;43.862;26.176;2022-08-19T04:48:21;100426.81;;;21.99;69.25
33153;BME280;19509;43.862;26.176;2022-08-19T04:50:55;100432.84;;;22.01;69.23
33153;BME280;19509;43.862;26.176;2022-08-19T04:53:28;100432.41;;;22.13;69.03
33153;BME280;19509;43.862;26.176;2022-08-19T04:55:56;100438.06;;;22.27;68.52
33153;BME280;19509;43.862;26.176;2022-08-19T04:58:22;100438.69;;;22.42;68.06
33153;BME280;19509;43.862;26.176;2022-08-19T05:00:48;100437.75;;;22.52;67.81
33153;BME280;19509;43.862;26.176;2022-08-19T05:03:14;100438.88;;;22.27;68.56
33153;BME280;19509;43.862;26.176;2022-08-19T05:05:43;100438.13;;;22.64;67.56
33153;BME280;19509;43.862;26.176;2022-08-19T05:08:11;100436.13;;;22.89;66.70
33153;BME280;19509;43.862;26.176;2022-08-19T05:10:38;100443.81;;;23.11;65.77
33153;BME280;19509;43.862;26.176;2022-08-19T05:13:05;100443.00;;;23.10;66.32
33153;BME280;19509;43.862;26.176;2022-08-19T05:15:30;100439.75;;;23.27;65.21
33153;BME280;19509;43.862;26.176;2022-08-19T05:17:56;100441.56;;;23.51;64.77
33153;BME280;19509;43.862;26.176;2022-08-19T05:20:40;100437.19;;;23.64;64.72
33153;BME280;19509;43.862;26.176;2022-08-19T05:23:24;100436.38;;;23.82;64.00
33153;BME280;19509;43.862;26.176;2022-08-19T05:25:51;100440.06;;;24.05;63.42
33153;BME280;19509;43.862;26.176;2022-08-19T05:28:17;100437.72;;;24.26;63.09
33153;BME280;19509;43.862;26.176;2022-08-19T05:30:44;100437.94;;;24.57;62.00
33153;BME280;19509;43.862;26.176;2022-08-19T05:33:10;100442.78;;;24.88;60.63
33153;BME280;19509;43.862;26.176;2022-08-19T05:35:38;100437.56;;;24.86;59.54
33153;BME280;19509;43.862;26.176;2022-08-19T05:38:04;100437.28;;;24.88;60.56
33153;BME280;19509;43.862;26.176;2022-08-19T05:40:34;100443.06;;;25.00;59.79
33153;BME280;19509;43.862;26.176;2022-08-19T05:43:02;100436.81;;;25.08;59.08
33153;BME280;19509;43.862;26.176;2022-08-19T05:45:27;100436.44;;;25.01;59.83
33153;BME280;19509;43.862;26.176;2022-08-19T05:47:53;100440.72;;;24.93;59.79
33153;BME280;19509;43.862;26.176;2022-08-19T05:50:19;100440.59;;;24.98;59.97
33153;BME280;19509;43.862;26.176;2022-08-19T05:52:45;100435.03;;;25.26;58.80
33153;BME280;19509;43.862;26.176;2022-08-19T05:55:10;100443.84;;;25.37;58.23
33153;BME280;19509;43.862;26.176;2022-08-19T05:57:36;100438.28;;;25.51;57.94
33153;BME280;19509;43.862;26.176;2022-08-19T06:00:03;100434.69;;;25.72;56.56
33153;BME280;19509;43.862;26.176;2022-08-19T06:02:33;100437.31;;;25.78;57.16
33153;BME280;19509;43.862;26.176;2022-08-19T06:05:01;100446.47;;;25.87;57.46
33153;BME280;19509;43.862;26.176;2022-08-19T06:07:27;100437.81;;;26.02;56.73
33153;BME280;19509;43.862;26.176;2022-08-19T06:09:54;100438.53;;;26.25;56.53
33153;BME280;19509;43.862;26.176;2022-08-19T06:12:20;100435.38;;;26.49;55.55
33153;BME280;19509;43.862;26.176;2022-08-19T06:14:52;100440.94;;;26.58;54.91
33153;BME280;19509;43.862;26.176;2022-08-19T06:17:19;100443.56;;;26.72;54.28
33153;BME280;19509;43.862;26.176;2022-08-19T06:19:46;100435.25;;;26.63;54.59
33153;BME280;19509;43.862;26.176;2022-08-19T06:22:11;100433.31;;;26.72;53.68
33153;BME280;19509;43.862;26.176;2022-08-19T06:24:38;100437.41;;;26.83;53.42
33153;BME280;19509;43.862;26.176;2022-08-19T06:27:04;100442.63;;;26.94;52.48
33153;BME280;19509;43.862;26.176;2022-08-19T06:29:31;100432.84;;;26.96;51.90
33153;BME280;19509;43.862;26.176;2022-08-19T06:31:58;100429.63;;;26.94;51.82
33153;BME280;19509;43.862;26.176;2022-08-19T06:34:25;100428.97;;;26.88;52.14
33153;BME280;19509;43.862;26.176;2022-08-19T06:36:52;100435.34;;;27.15;52.08
33153;BME280;19509;43.862;26.176;2022-08-19T06:39:21;100421.34;;;27.29;52.25
33153;BME280;19509;43.862;26.176;2022-08-19T06:41:49;100426.66;;;27.60;51.10
33153;BME280;19509;43.862;26.176;2022-08-19T06:44:16;100427.09;;;27.88;50.50
33153;BME280;19509;43.862;26.176;2022-08-19T06:46:42;100425.97;;;27.89;49.83
33153;BME280;19509;43.862;26.176;2022-08-19T06:49:08;100422.72;;;27.87;49.69
33153;BME280;19509;43.862;26.176;2022-08-19T06:51:38;100420.75;;;27.88;49.44
33153;BME280;19509;43.862;26.176;2022-08-19T06:54:04;100428.00;;;28.10;48.58
33153;BME280;19509;43.862;26.176;2022-08-19T06:56:31;100423.72;;;28.21;48.23
33153;BME280;19509;43.862;26.176;2022-08-19T06:59:05;100416.41;;;28.16;48.37
33153;BME280;19509;43.862;26.176;2022-08-19T07:01:44;100425.28;;;28.30;47.41
33153;BME280;19509;43.862;26.176;2022-08-19T07:04:17;100415.56;;;28.24;47.04
33153;BME280;19509;43.862;26.176;2022-08-19T07:06:44;100417.38;;;28.20;48.25
33153;BME280;19509;43.862;26.176;2022-08-19T07:09:12;100419.03;;;28.51;47.16
33153;BME280;19509;43.862;26.176;2022-08-19T07:11:38;100417.31;;;28.29;46.62
33153;BME280;19509;43.862;26.176;2022-08-19T07:14:03;100420.34;;;28.36;47.66
33153;BME280;19509;43.862;26.176;2022-08-19T07:16:31;100423.94;;;28.45;46.72
33153;BME280;19509;43.862;26.176;2022-08-19T07:18:57;100414.69;;;28.33;46.66
33153;BME280;19509;43.862;26.176;2022-08-19T07:21:25;100422.00;;;28.37;46.80
33153;BME280;19509;43.862;26.176;2022-08-19T07:23:53;100423.00;;;28.62;47.09
33153;BME280;19509;43.862;26.176;2022-08-19T07:26:25;100427.03;;;28.94;46.29
33153;BME280;19509;43.862;26.176;2022-08-19T07:28:52;100412.44;;;28.85;45.85
33153;BME280;19509;43.862;26.176;2022-08-19T07:31:21;100418.19;;;29.01;46.10
33153;BME280;19509;43.862;26.176;2022-08-19T07:33:49;100421.16;;;29.17;45.39
33153;BME280;19509;43.862;26.176;2022-08-19T07:36:25;100429.81;;;29.15;45.43
33153;BME280;19509;43.862;26.176;2022-08-19T07:38:51;100424.13;;;29.12;46.41
33153;BME280;19509;43.862;26.176;2022-08-19T07:41:22;100418.50;;;28.79;46.16
33153;BME280;19509;43.862;26.176;2022-08-19T07:43:48;100420.13;;;29.00;46.00
33153;BME280;19509;43.862;26.176;2022-08-19T07:46:14;100422.31;;;29.16;46.39
33153;BME280;19509;43.862;26.176;2022-08-19T07:48:44;100424.53;;;29.22;46.31
33153;BME280;19509;43.862;26.176;2022-08-19T07:51:14;100421.03;;;29.46;44.29
33153;BME280;19509;43.862;26.176;2022-08-19T07:53:40;100420.69;;;29.15;45.79
33153;BME280;19509;43.862;26.176;2022-08-19T07:56:06;100415.84;;;29.45;45.57
33153;BME280;19509;43.862;26.176;2022-08-19T07:58:34;100416.63;;;29.79;44.48
33153;BME280;19509;43.862;26.176;2022-08-19T08:01:00;100423.56;;;29.73;45.02
33153;BME280;19509;43.862;26.176;2022-08-19T08:03:27;100407.63;;;29.69;45.28
33153;BME280;19509;43.862;26.176;2022-08-19T08:06:13;100412.16;;;29.86;44.16
33153;BME280;19509;43.862;26.176;2022-08-19T08:08:57;100414.22;;;30.02;43.29
33153;BME280;19509;43.862;26.176;2022-08-19T08:11:44;100410.16;;;29.99;43.44
33153;BME280;19509;43.862;26.176;2022-08-19T08:14:16;100403.97;;;29.57;44.72
33153;BME280;19509;43.862;26.176;2022-08-19T08:16:42;100402.31;;;29.77;44.09
33153;BME280;19509;43.862;26.176;2022-08-19T08:19:09;100409.25;;;29.95;44.63
33153;BME280;19509;43.862;26.176;2022-08-19T08:21:35;100399.81;;;30.21;42.67
33153;BME280;19509;43.862;26.176;2022-08-19T08:24:00;100399.28;;;29.82;43.81
33153;BME280;19509;43.862;26.176;2022-08-19T08:26:26;100397.72;;;29.93;44.27
33153;BME280;19509;43.862;26.176;2022-08-19T08:28:53;100386.28;;;30.19;43.44
33153;BME280;19509;43.862;26.176;2022-08-19T08:31:19;100388.47;;;30.26;42.90
33153;BME280;19509;43.862;26.176;2022-08-19T08:33:46;100385.13;;;30.32;43.20
33153;BME280;19509;43.862;26.176;2022-08-19T08:36:12;100389.63;;;30.37;42.37
33153;BME280;19509;43.862;26.176;2022-08-19T08:38:39;100390.69;;;30.20;43.29
33153;BME280;19509;43.862;26.176;2022-08-19T08:43:56;100386.91;;;30.77;42.61
33153;BME280;19509;43.862;26.176;2022-08-19T08:46:39;100390.94;;;30.92;41.95
33153;BME280;19509;43.862;26.176;2022-08-19T08:49:42;100381.16;;;31.26;41.33
33153;BME280;19509;43.862;26.176;2022-08-19T08:52:36;100387.38;;;30.67;41.82
33153;BME280;19509;43.862;26.176;2022-08-19T08:55:08;100385.19;;;30.60;41.57
33153;BME280;19509;43.862;26.176;2022-08-19T09:00:08;100392.13;;;30.67;41.71
33153;BME280;19509;43.862;26.176;2022-08-19T09:02:35;100390.19;;;30.55;42.57
33153;BME280;19509;43.862;26.176;2022-08-19T09:05:01;100387.69;;;30.90;41.44
33153;BME280;19509;43.862;26.176;2022-08-19T09:09:57;100384.06;;;31.02;41.92
33153;BME280;19509;43.862;26.176;2022-08-19T09:12:56;100384.81;;;31.58;39.70
33153;BME280;19509;43.862;26.176;2022-08-19T09:15:33;100383.69;;;31.60;40.18
33153;BME280;19509;43.862;26.176;2022-08-19T09:18:02;100389.84;;;31.25;39.82
33153;BME280;19509;43.862;26.176;2022-08-19T09:20:28;100390.88;;;31.04;39.74
33153;BME280;19509;43.862;26.176;2022-08-19T09:22:56;100379.00;;;30.92;40.58
33153;BME280;19509;43.862;26.176;2022-08-19T09:25:22;100387.94;;;31.13;41.21
33153;BME280;19509;43.862;26.176;2022-08-19T09:27:49;100391.09;;;30.47;41.39
33153;BME280;19509;43.862;26.176;2022-08-19T09:30:21;100389.53;;;30.98;42.02
33153;BME280;19509;43.862;26.176;2022-08-19T09:32:49;100385.56;;;31.27;39.73
33153;BME280;19509;43.862;26.176;2022-08-19T09:35:18;100380.81;;;31.72;40.16
33153;BME280;19509;43.862;26.176;2022-08-19T09:37:43;100382.19;;;31.94;39.57
33153;BME280;19509;43.862;26.176;2022-08-19T09:40:10;100375.44;;;31.63;39.39
33153;BME280;19509;43.862;26.176;2022-08-19T09:42:37;100379.91;;;31.24;39.89
33153;BME280;19509;43.862;26.176;2022-08-19T09:45:03;100380.09;;;31.31;39.32
33153;BME280;19509;43.862;26.176;2022-08-19T09:47:29;100370.25;;;30.65;40.74
33153;BME280;19509;43.862;26.176;2022-08-19T09:49:55;100378.84;;;30.48;40.67
33153;BME280;19509;43.862;26.176;2022-08-19T09:52:21;100381.91;;;30.30;41.11
33153;BME280;19509;43.862;26.176;2022-08-19T09:54:46;100378.84;;;30.48;41.48
33153;BME280;19509;43.862;26.176;2022-08-19T09:57:12;100375.25;;;31.00;39.28
33153;BME280;19509;43.862;26.176;2022-08-19T09:59:38;100375.06;;;31.49;39.95
33153;BME280;19509;43.862;26.176;2022-08-19T10:02:04;100366.53;;;32.05;38.52
33153;BME280;19509;43.862;26.176;2022-08-19T10:04:29;100369.91;;;32.46;37.88
33153;BME280;19509;43.862;26.176;2022-08-19T10:07:14;100365.44;;;32.61;36.88
33153;BME280;19509;43.862;26.176;2022-08-19T10:09:39;100371.25;;;32.52;37.18
33153;BME280;19509;43.862;26.176;2022-08-19T10:12:06;100366.78;;;32.47;37.32
33153;BME280;19509;43.862;26.176;2022-08-19T10:14:33;100358.00;;;32.65;37.30
33153;BME280;19509;43.862;26.176;2022-08-19T10:16:58;100357.16;;;32.64;37.43
33153;BME280;19509;43.862;26.176;2022-08-19T10:19:26;100367.50;;;32.99;36.53
33153;BME280;19509;43.862;26.176;2022-08-19T10:21:53;100348.06;;;32.48;36.09
33153;BME280;19509;43.862;26.176;2022-08-19T10:24:19;100351.84;;;32.40;36.73
33153;BME280;19509;43.862;26.176;2022-08-19T10:26:45;100340.69;;;32.75;37.37
33153;BME280;19509;43.862;26.176;2022-08-19T10:29:13;100346.09;;;33.26;34.75
33153;BME280;19509;43.862;26.176;2022-08-19T10:31:41;100341.63;;;33.44;35.30
33153;BME280;19509;43.862;26.176;2022-08-19T10:34:07;100343.84;;;33.78;34.36
33153;BME280;19509;43.862;26.176;2022-08-19T10:36:36;100343.03;;;32.92;34.67
33153;BME280;19509;43.862;26.176;2022-08-19T10:39:07;100342.28;;;32.57;36.07
33153;BME280;19509;43.862;26.176;2022-08-19T10:41:36;100343.66;;;32.47;35.82
33153;BME280;19509;43.862;26.176;2022-08-19T10:44:07;100339.16;;;32.07;36.01
33153;BME280;19509;43.862;26.176;2022-08-19T10:46:36;100326.84;;;32.24;36.02
33153;BME280;19509;43.862;26.176;2022-08-19T10:49:04;100328.66;;;32.71;36.52
33153;BME280;19509;43.862;26.176;2022-08-19T10:51:30;100339.72;;;32.32;36.55
33153;BME280;19509;43.862;26.176;2022-08-19T10:54:14;100326.75;;;32.56;35.33
33153;BME280;19509;43.862;26.176;2022-08-19T10:56:40;100326.72;;;32.94;35.47
33153;BME280;19509;43.862;26.176;2022-08-19T11:01:46;100324.34;;;33.12;33.50
33153;BME280;19509;43.862;26.176;2022-08-19T11:04:13;100325.50;;;32.92;33.75
33153;BME280;19509;43.862;26.176;2022-08-19T11:06:46;100314.81;;;33.36;33.41
33153;BME280;19509;43.862;26.176;2022-08-19T11:09:14;100319.06;;;33.76;32.10
33153;BME280;19509;43.862;26.176;2022-08-19T11:11:41;100331.25;;;33.64;33.36
33153;BME280;19509;43.862;26.176;2022-08-19T11:14:09;100326.38;;;33.58;32.91
33153;BME280;19509;43.862;26.176;2022-08-19T11:16:35;100320.94;;;33.91;33.21
33153;BME280;19509;43.862;26.176;2022-08-19T11:19:02;100314.69;;;33.75;33.63
33153;BME280;19509;43.862;26.176;2022-08-19T11:21:33;100312.75;;;33.10;33.89
33153;BME280;19509;43.862;26.176;2022-08-19T11:24:02;100312.38;;;32.73;34.26
33153;BME280;19509;43.862;26.176;2022-08-19T11:26:29;100312.59;;;32.64;34.39
33153;BME280;19509;43.862;26.176;2022-08-19T11:28:56;100309.72;;;32.61;34.25
33153;BME280;19509;43.862;26.176;2022-08-19T11:31:26;100310.75;;;32.53;34.80
33153;BME280;19509;43.862;26.176;2022-08-19T11:33:52;100300.75;;;32.32;34.51
33153;BME280;19509;43.862;26.176;2022-08-19T11:36:20;100302.94;;;32.23;34.81
33153;BME280;19509;43.862;26.176;2022-08-19T11:38:50;100304.09;;;32.57;33.80
33153;BME280;19509;43.862;26.176;2022-08-19T11:41:17;100293.53;;;32.47;34.44
33153;BME280;19509;43.862;26.176;2022-08-19T11:43:44;100306.03;;;32.37;34.87
33153;BME280;19509;43.862;26.176;2022-08-19T11:46:13;100298.59;;;33.00;34.28
33153;BME280;19509;43.862;26.176;2022-08-19T11:48:39;100299.94;;;33.75;33.74
33153;BME280;19509;43.862;26.176;2022-08-19T11:51:08;100277.69;;;34.05;32.25
33153;BME280;19509;43.862;26.176;2022-08-19T11:53:35;100278.38;;;34.55;31.91
33153;BME280;19509;43.862;26.176;2022-08-19T11:56:01;100285.09;;;34.24;30.39
33153;BME280;19509;43.862;26.176;2022-08-19T11:58:27;100273.47;;;34.48;30.97
33153;BME280;19509;43.862;26.176;2022-08-19T12:00:52;100278.47;;;34.62;30.70
33153;BME280;19509;43.862;26.176;2022-08-19T12:03:18;100281.56;;;34.27;31.04
33153;BME280;19509;43.862;26.176;2022-08-19T12:05:45;100279.22;;;34.29;30.78
33153;BME280;19509;43.862;26.176;2022-08-19T12:08:10;100282.63;;;33.65;31.59
33153;BME280;19509;43.862;26.176;2022-08-19T12:10:38;100277.31;;;33.34;32.17
33153;BME280;19509;43.862;26.176;2022-08-19T12:13:05;100280.47;;;33.55;32.39
33153;BME280;19509;43.862;26.176;2022-08-19T12:15:39;100280.66;;;33.92;32.04
33153;BME280;19509;43.862;26.176;2022-08-19T12:18:07;100263.69;;;34.31;30.35
33153;BME280;19509;43.862;26.176;2022-08-19T12:20:37;100269.88;;;34.81;29.26
33153;BME280;19509;43.862;26.176;2022-08-19T12:23:04;100251.88;;;35.13;29.72
33153;BME280;19509;43.862;26.176;2022-08-19T12:25:30;100249.78;;;35.50;28.20
33153;BME280;19509;43.862;26.176;2022-08-19T12:27:56;100251.75;;;35.46;28.26
33153;BME280;19509;43.862;26.176;2022-08-19T12:30:22;100250.25;;;35.56;30.10
33153;BME280;19509;43.862;26.176;2022-08-19T12:32:47;100251.00;;;35.53;28.78
33153;BME280;19509;43.862;26.176;2022-08-19T12:35:13;100253.31;;;34.62;28.95
33153;BME280;19509;43.862;26.176;2022-08-19T12:37:39;100242.41;;;34.23;29.61
33153;BME280;19509;43.862;26.176;2022-08-19T12:40:08;100246.22;;;33.09;32.04
33153;BME280;19509;43.862;26.176;2022-08-19T12:42:33;100253.44;;;33.59;32.59
33153;BME280;19509;43.862;26.176;2022-08-19T12:44:59;100256.81;;;33.23;31.56
33153;BME280;19509;43.862;26.176;2022-08-19T12:47:25;100250.28;;;32.72;32.62
33153;BME280;19509;43.862;26.176;2022-08-19T12:49:51;100256.06;;;32.83;32.18
33153;BME280;19509;43.862;26.176;2022-08-19T12:52:17;100247.69;;;33.03;32.51
33153;BME280;19509;43.862;26.176;2022-08-19T12:54:46;100238.38;;;33.90;32.26